Аэропорт: Гостомель. Киев

ICAO: UKKM

METAR:
2019-11-21 09:30:00
UKKM 210930Z 12006MPS 090V150 9999 OVC018 M01/M05 Q1036 R15/210160 TEMPO 12010G17MPS
METAR:
2019-11-21 07:03:00
TAF COR UKKM 210703Z 2107/2206 11006G12MPS 9999 BKN010 OVC020 TX01/2107Z TNM06/2206Z TEMPO 2107/2118 13010G17MPS 2100 -RA BR OVC007